Time;durP1;ratioP1;P1;durP2;ratioP2;P2;SDS_P1;SDS_P2;PMS_P1;PMS_P2;Temp;Humidity;BMP_temperature;BMP_pressure;BME280_temperature;BME280_humidity;BME280_pressure;Samples;Min_cycle;Max_cycle;Signal;HPM_P1;HPM_P2
2022/07/14 00:01:35;;;;;;;2.20;1.55;;;29.80;31.50;;;;;;5065455;28;45549;-72
2022/07/14 00:04:02;;;;;;;1.48;1.38;;;29.70;31.50;;;;;;5065557;28;45300;-73
2022/07/14 00:06:31;;;;;;;1.80;1.70;;;29.70;31.60;;;;;;5067650;28;45216;-73
2022/07/14 00:08:57;;;;;;;1.40;1.30;;;29.70;31.60;;;;;;5069152;28;45237;-72
2022/07/14 00:11:24;;;;;;;1.60;1.50;;;29.70;31.70;;;;;;5068515;28;45252;-72
2022/07/14 00:13:51;;;;;;;1.67;1.58;;;29.70;32.30;;;;;;5068787;28;45315;-72
2022/07/14 00:16:18;;;;;;;1.70;1.60;;;29.70;31.90;;;;;;5068734;28;45272;-72
2022/07/14 00:18:45;;;;;;;1.63;1.50;;;29.70;31.90;;;;;;5068890;28;45189;-72
2022/07/14 00:21:12;;;;;;;1.80;1.70;;;29.60;31.90;;;;;;5068659;28;45198;-72
2022/07/14 00:23:40;;;;;;;2.60;1.77;;;29.60;32.00;;;;;;5068703;28;45186;-72
2022/07/14 00:26:07;;;;;;;1.52;1.42;;;29.60;31.80;;;;;;5069083;28;45241;-72
2022/07/14 00:28:34;;;;;;;1.70;1.60;;;29.60;32.10;;;;;;5068677;28;45394;-72
2022/07/14 00:31:03;;;;;;;1.58;1.45;;;29.60;32.10;;;;;;5068469;28;47315;-72
2022/07/14 00:33:30;;;;;;;1.73;1.63;;;29.50;32.00;;;;;;5068180;28;45332;-71
2022/07/14 00:35:57;;;;;;;1.88;1.50;;;29.50;32.00;;;;;;5068512;28;45338;-72
2022/07/14 00:38:24;;;;;;;1.70;1.55;;;29.50;32.10;;;;;;5068494;28;45380;-73
2022/07/14 00:40:52;;;;;;;3.70;1.38;;;29.50;32.10;;;;;;5067727;28;46935;-71
2022/07/14 00:43:19;;;;;;;2.25;1.50;;;29.50;32.10;;;;;;5067531;28;45204;-72
2022/07/14 00:45:45;;;;;;;2.22;1.60;;;29.50;32.20;;;;;;5068211;28;45395;-71
2022/07/14 00:48:13;;;;;;;1.80;1.70;;;29.50;32.20;;;;;;5068381;28;45474;-71
2022/07/14 00:50:41;;;;;;;1.90;1.60;;;29.50;32.20;;;;;;5068092;28;46643;-71
2022/07/14 00:53:08;;;;;;;1.60;1.50;;;29.40;32.90;;;;;;5068105;28;45200;-71
2022/07/14 00:55:35;;;;;;;1.73;1.30;;;29.40;32.10;;;;;;5068142;28;45338;-72
2022/07/14 00:58:03;;;;;;;1.67;1.52;;;29.40;32.20;;;;;;5068428;28;45476;-71
2022/07/14 01:00:30;;;;;;;1.52;1.42;;;29.30;32.30;;;;;;5067967;28;45245;-73
2022/07/14 01:02:57;;;;;;;1.77;1.38;;;29.30;32.30;;;;;;5068116;28;45224;-74
2022/07/14 01:05:24;;;;;;;1.40;1.35;;;29.30;32.20;;;;;;5068540;28;45188;-73
2022/07/14 01:07:51;;;;;;;2.30;1.38;;;29.30;32.40;;;;;;5068336;28;45415;-73
2022/07/14 01:10:18;;;;;;;2.72;1.55;;;29.30;32.40;;;;;;5068044;28;45306;-71
2022/07/14 01:12:46;;;;;;;1.50;1.40;;;29.30;32.40;;;;;;5067995;28;45280;-70
2022/07/14 01:15:15;;;;;;;1.40;1.30;;;29.20;32.40;;;;;;5068097;28;45147;-71
2022/07/14 01:17:42;;;;;;;1.30;1.25;;;29.30;32.40;;;;;;5067432;28;45328;-71
2022/07/14 01:20:10;;;;;;;2.22;1.50;;;29.20;32.40;;;;;;5067850;28;45479;-71
2022/07/14 01:22:38;;;;;;;1.40;1.30;;;29.20;32.40;;;;;;5067767;28;45256;-71
2022/07/14 01:25:06;;;;;;;1.50;1.35;;;29.20;32.40;;;;;;5067994;28;45287;-71
2022/07/14 01:27:33;;;;;;;2.08;1.30;;;29.20;32.60;;;;;;5067980;28;45320;-70
2022/07/14 01:30:00;;;;;;;1.65;1.50;;;29.10;32.50;;;;;;5066834;28;45661;-72
2022/07/14 01:32:27;;;;;;;1.40;1.30;;;29.10;32.50;;;;;;5067552;28;45153;-71
2022/07/14 01:34:54;;;;;;;1.90;1.40;;;29.10;32.50;;;;;;5067371;28;45237;-71
2022/07/14 01:37:21;;;;;;;2.75;1.58;;;29.10;32.50;;;;;;5067865;28;45292;-73
2022/07/14 01:39:49;;;;;;;1.70;1.60;;;29.10;32.50;;;;;;5067352;28;45309;-73
2022/07/14 01:42:16;;;;;;;2.00;1.52;;;29.10;32.60;;;;;;5067847;28;45421;-72
2022/07/14 01:44:43;;;;;;;1.45;1.35;;;29.10;32.70;;;;;;5067732;28;45171;-72
2022/07/14 01:47:10;;;;;;;1.52;1.42;;;29.00;32.70;;;;;;5067950;28;45468;-72
2022/07/14 01:49:37;;;;;;;1.95;1.75;;;29.00;32.70;;;;;;5067375;28;45469;-72
2022/07/14 01:52:04;;;;;;;3.60;1.40;;;29.00;33.20;;;;;;5067290;28;45252;-72
2022/07/14 01:54:31;;;;;;;1.15;1.13;;;29.00;32.60;;;;;;5067543;28;45228;-73
2022/07/14 01:56:59;;;;;;;1.88;1.40;;;28.90;32.70;;;;;;5067907;28;45428;-72
2022/07/14 01:59:26;;;;;;;1.55;1.45;;;28.90;32.50;;;;;;5066984;28;46407;-71
2022/07/14 02:01:53;;;;;;;1.20;1.10;;;28.90;32.60;;;;;;5067170;27;45411;-72
2022/07/14 02:04:20;;;;;;;1.10;1.10;;;28.90;33.30;;;;;;5067386;28;45319;-71
2022/07/14 02:06:48;;;;;;;1.55;1.40;;;28.80;32.50;;;;;;5067355;28;45335;-73
2022/07/14 02:09:15;;;;;;;1.42;1.33;;;28.80;32.60;;;;;;5067032;28;45438;-73
2022/07/14 02:14:28;;;;;;;1.15;1.10;;;28.80;32.80;;;;;;5064643;28;45279;-71
2022/07/14 02:16:55;;;;;;;1.42;1.33;;;28.80;32.70;;;;;;5067297;28;45189;-72
2022/07/14 02:19:23;;;;;;;1.38;1.27;;;28.80;32.60;;;;;;5066636;28;46492;-72
2022/07/14 02:21:51;;;;;;;1.35;1.25;;;28.80;32.70;;;;;;5066043;28;45318;-71
2022/07/14 02:24:18;;;;;;;1.33;1.27;;;28.70;32.60;;;;;;5066805;28;45391;-72
2022/07/14 02:26:45;;;;;;;1.42;1.33;;;28.70;32.60;;;;;;5067113;28;45323;-72
2022/07/14 02:29:12;;;;;;;1.30;1.20;;;28.70;32.60;;;;;;5065555;28;45259;-71
2022/07/14 02:31:43;;;;;;;1.17;1.13;;;28.70;32.60;;;;;;5066889;28;45244;-71
2022/07/14 02:34:09;;;;;;;1.55;1.20;;;28.70;32.80;;;;;;5066610;28;45283;-72
2022/07/14 02:36:36;;;;;;;1.20;1.13;;;28.70;32.70;;;;;;5066882;28;45243;-71
2022/07/14 02:39:03;;;;;;;1.15;1.13;;;28.60;32.60;;;;;;5066408;28;45336;-71
2022/07/14 02:41:30;;;;;;;1.42;1.33;;;28.60;32.80;;;;;;5066639;28;45239;-71
2022/07/14 02:43:57;;;;;;;1.20;1.20;;;28.60;32.60;;;;;;5066634;28;45251;-71
2022/07/14 02:46:24;;;;;;;1.35;1.25;;;28.60;32.60;;;;;;5066948;28;45404;-71
2022/07/14 02:48:52;;;;;;;1.25;1.20;;;28.60;32.70;;;;;;5066322;28;45206;-71
2022/07/14 02:51:19;;;;;;;1.40;1.30;;;28.60;32.80;;;;;;5066441;28;45181;-71
2022/07/14 02:53:46;;;;;;;1.35;1.05;;;28.60;32.80;;;;;;5066594;28;45380;-71
2022/07/14 02:56:13;;;;;;;1.15;1.10;;;28.50;32.80;;;;;;5066666;28;45334;-72
2022/07/14 02:58:40;;;;;;;1.25;1.15;;;28.50;32.80;;;;;;5066268;28;45433;-71
2022/07/14 03:01:07;;;;;;;1.20;1.10;;;28.50;32.90;;;;;;5066251;28;45341;-71
2022/07/14 03:03:35;;;;;;;1.13;1.02;;;28.50;32.90;;;;;;5066494;28;45204;-72
2022/07/14 03:06:09;;;;;;;1.15;1.05;;;28.50;32.90;;;;;;5066516;28;45394;-71
2022/07/14 03:08:36;;;;;;;0.90;0.90;;;28.50;33.00;;;;;;5066049;28;46404;-71
2022/07/14 03:11:03;;;;;;;1.30;1.20;;;28.40;32.90;;;;;;5065576;28;45381;-71
2022/07/14 03:13:30;;;;;;;0.93;0.93;;;28.40;32.90;;;;;;5066029;28;45333;-71
2022/07/14 03:15:57;;;;;;;1.33;1.23;;;28.40;33.00;;;;;;5063823;28;45236;-71
2022/07/14 03:18:24;;;;;;;1.20;1.10;;;28.40;33.00;;;;;;5065975;28;46332;-71
2022/07/14 03:20:51;;;;;;;1.10;1.10;;;28.40;33.00;;;;;;5066068;28;45288;-71
2022/07/14 03:23:19;;;;;;;1.08;1.00;;;28.40;33.10;;;;;;5066009;28;45259;-71
2022/07/14 03:25:46;;;;;;;1.20;1.10;;;28.40;33.00;;;;;;5066265;28;45304;-71
2022/07/14 03:28:14;;;;;;;0.90;0.90;;;28.30;33.00;;;;;;5065786;28;46944;-71
2022/07/14 03:30:41;;;;;;;1.08;0.98;;;28.30;33.00;;;;;;5065800;28;45182;-71
2022/07/14 03:33:08;;;;;;;1.20;1.17;;;28.30;33.00;;;;;;5065813;28;45366;-71
2022/07/14 03:35:37;;;;;;;0.95;0.95;;;28.30;33.00;;;;;;5066081;28;45454;-72
2022/07/14 03:38:04;;;;;;;0.98;0.98;;;28.30;33.10;;;;;;5065748;28;45218;-71
2022/07/14 03:40:33;;;;;;;1.10;1.05;;;28.30;33.10;;;;;;5066251;28;45902;-71
2022/07/14 03:43:01;;;;;;;0.90;0.90;;;28.30;33.00;;;;;;5069577;28;45244;-71
2022/07/14 03:45:28;;;;;;;1.27;0.90;;;28.20;33.00;;;;;;5069831;28;45535;-71
2022/07/14 03:47:55;;;;;;;1.08;1.02;;;28.20;33.00;;;;;;5069302;28;45460;-71
2022/07/14 03:50:21;;;;;;;1.17;1.17;;;28.20;33.10;;;;;;5069088;28;45376;-71
2022/07/14 03:52:48;;;;;;;1.27;1.17;;;28.20;33.00;;;;;;5069382;28;45322;-71
2022/07/14 03:55:15;;;;;;;1.10;1.10;;;28.20;33.10;;;;;;5069407;28;45379;-71
2022/07/14 03:57:43;;;;;;;1.50;1.25;;;28.20;33.10;;;;;;5068806;28;46407;-71
2022/07/14 04:00:11;;;;;;;2.50;1.17;;;28.20;33.00;;;;;;5068235;28;45189;-71
2022/07/14 04:02:38;;;;;;;1.30;1.20;;;28.20;33.10;;;;;;5068879;28;45331;-71
2022/07/14 04:05:05;;;;;;;1.25;1.00;;;28.10;33.10;;;;;;5069409;28;45293;-71
2022/07/14 04:07:32;;;;;;;1.10;0.93;;;28.10;33.10;;;;;;5068833;28;47870;-72
2022/07/14 04:09:59;;;;;;;1.00;1.00;;;28.10;33.10;;;;;;5066516;28;45191;-72
2022/07/14 04:12:26;;;;;;;0.90;0.90;;;28.10;33.20;;;;;;5069319;28;45339;-72
2022/07/14 04:14:54;;;;;;;1.00;1.00;;;28.10;33.10;;;;;;5069253;28;45264;-72
2022/07/14 04:17:21;;;;;;;1.35;1.20;;;28.10;33.20;;;;;;5068867;28;45218;-72
2022/07/14 04:19:48;;;;;;;1.00;0.88;;;28.10;33.30;;;;;;5066110;28;45214;-72
2022/07/14 04:22:15;;;;;;;1.10;1.00;;;28.10;33.20;;;;;;5068851;28;45144;-72
2022/07/14 04:24:42;;;;;;;1.02;0.90;;;28.00;33.10;;;;;;5069158;28;45328;-72
2022/07/14 04:27:09;;;;;;;0.98;0.98;;;28.00;33.30;;;;;;5068579;28;46676;-72
2022/07/14 04:29:35;;;;;;;2.45;0.90;;;28.00;33.30;;;;;;5068674;28;45320;-71
2022/07/14 04:32:04;;;;;;;1.77;1.17;;;28.00;33.30;;;;;;5068747;28;45197;-72
2022/07/14 04:34:31;;;;;;;0.95;0.90;;;28.00;33.30;;;;;;5068700;28;45416;-72
2022/07/14 04:36:58;;;;;;;1.00;0.90;;;28.00;33.30;;;;;;5068572;28;47331;-71
2022/07/14 04:39:25;;;;;;;1.10;1.00;;;28.00;33.40;;;;;;5068602;28;45434;-72
2022/07/14 04:41:51;;;;;;;1.02;1.00;;;28.00;33.30;;;;;;5068504;28;45280;-71
2022/07/14 04:44:18;;;;;;;0.93;0.88;;;27.90;33.40;;;;;;5068140;28;45454;-71
2022/07/14 04:46:45;;;;;;;1.00;1.00;;;27.90;33.30;;;;;;5068130;28;46891;-72
2022/07/14 04:52:03;;;;;;;1.52;1.10;;;27.90;33.40;;;;;;5067362;28;45346;-71
2022/07/14 04:54:31;;;;;;;1.15;1.05;;;27.90;33.40;;;;;;5068321;28;45376;-70
2022/07/14 04:56:57;;;;;;;0.95;0.95;;;27.90;33.50;;;;;;5068159;28;46942;-70
2022/07/14 04:59:24;;;;;;;0.80;0.80;;;27.90;33.60;;;;;;5068194;28;45319;-71
2022/07/14 05:01:51;;;;;;;0.95;0.95;;;27.90;33.50;;;;;;5068404;28;45308;-71
2022/07/14 05:04:19;;;;;;;1.20;1.10;;;27.90;34.20;;;;;;5068285;28;45307;-71
2022/07/14 05:06:49;;;;;;;0.70;0.70;;;27.80;33.50;;;;;;5068046;28;47314;-71
2022/07/14 05:09:16;;;;;;;0.85;0.85;;;27.80;33.50;;;;;;5068258;28;45201;-71
2022/07/14 05:11:43;;;;;;;1.60;0.90;;;27.80;33.60;;;;;;5068131;28;45183;-71
2022/07/14 05:14:10;;;;;;;0.98;0.98;;;27.80;33.50;;;;;;5068596;28;45399;-71
2022/07/14 05:16:38;;;;;;;1.58;0.95;;;27.80;33.60;;;;;;5067883;28;45287;-71
2022/07/14 05:19:04;;;;;;;1.00;1.00;;;27.80;33.60;;;;;;5068030;28;45404;-71
2022/07/14 05:21:33;;;;;;;0.80;0.80;;;27.80;33.50;;;;;;5067954;28;45356;-71
2022/07/14 05:24:00;;;;;;;0.90;0.90;;;27.80;33.50;;;;;;5068389;28;45359;-71
2022/07/14 05:26:26;;;;;;;0.77;0.77;;;27.80;33.50;;;;;;5067639;28;46429;-71
2022/07/14 05:28:53;;;;;;;1.15;0.88;;;27.80;33.60;;;;;;5067671;28;45290;-71
2022/07/14 05:31:20;;;;;;;1.50;1.05;;;27.80;33.60;;;;;;5067736;28;45255;-71
2022/07/14 05:33:47;;;;;;;1.25;1.15;;;27.80;33.60;;;;;;5067537;28;45304;-71
2022/07/14 05:36:14;;;;;;;1.13;1.02;;;27.80;33.60;;;;;;5067470;28;46461;-71
2022/07/14 05:38:43;;;;;;;1.10;1.10;;;27.70;33.50;;;;;;5067073;28;45204;-71
2022/07/14 05:41:09;;;;;;;0.73;0.73;;;27.70;33.60;;;;;;5067305;28;45362;-70
2022/07/14 05:43:37;;;;;;;0.98;0.73;;;27.70;33.50;;;;;;5067743;28;45329;-71
2022/07/14 05:46:05;;;;;;;1.85;0.98;;;27.70;33.60;;;;;;5067354;28;45636;-71
2022/07/14 05:48:32;;;;;;;1.42;0.73;;;27.70;33.60;;;;;;5067530;28;45320;-70
2022/07/14 05:51:09;;;;;;;1.08;0.98;;;27.70;33.60;;;;;;5067480;28;45326;-71
2022/07/14 05:53:36;;;;;;;0.90;0.90;;;27.70;33.70;;;;;;5067874;28;45553;-71
2022/07/14 05:56:05;;;;;;;1.00;1.00;;;27.70;33.60;;;;;;5067109;28;46661;-71
2022/07/14 05:58:32;;;;;;;0.90;0.90;;;27.70;33.70;;;;;;5067175;28;45240;-72
2022/07/14 06:00:59;;;;;;;1.23;1.10;;;27.70;33.60;;;;;;5067721;28;45315;-71
2022/07/14 06:03:26;;;;;;;1.58;1.00;;;27.70;33.60;;;;;;5067087;28;45465;-72
2022/07/14 06:05:53;;;;;;;1.00;1.00;;;27.70;33.70;;;;;;5066983;28;45450;-70
2022/07/14 06:08:20;;;;;;;1.00;0.88;;;27.70;33.60;;;;;;5067061;28;45236;-71
2022/07/14 06:10:46;;;;;;;0.90;0.90;;;27.70;33.70;;;;;;5067211;28;45192;-71
2022/07/14 06:13:14;;;;;;;1.17;1.08;;;27.70;33.70;;;;;;5067455;28;45336;-70
2022/07/14 06:15:41;;;;;;;0.98;0.80;;;27.70;33.70;;;;;;5066955;28;46436;-70
2022/07/14 06:18:10;;;;;;;2.65;1.00;;;27.70;33.80;;;;;;5067081;28;45180;-70
2022/07/14 06:20:37;;;;;;;1.20;0.93;;;27.70;33.80;;;;;;5067084;28;45276;-70
2022/07/14 06:23:04;;;;;;;0.95;0.90;;;27.70;33.80;;;;;;5067299;28;45365;-71
2022/07/14 06:25:31;;;;;;;0.80;0.80;;;27.70;33.80;;;;;;5066957;28;46491;-70
2022/07/14 06:27:58;;;;;;;1.33;0.95;;;27.80;33.90;;;;;;5066445;28;45213;-71
2022/07/14 06:30:26;;;;;;;0.70;0.70;;;27.80;34.50;;;;;;5066050;28;45200;-71
2022/07/14 06:32:52;;;;;;;2.80;1.00;;;27.80;33.80;;;;;;5066817;28;45261;-70
2022/07/14 06:35:19;;;;;;;1.52;1.00;;;27.80;33.80;;;;;;5066664;28;46416;-71
2022/07/14 06:37:46;;;;;;;1.17;0.95;;;27.80;33.80;;;;;;5064058;28;45373;-70
2022/07/14 06:40:13;;;;;;;0.93;0.90;;;27.90;33.90;;;;;;5067105;28;45216;-71
2022/07/14 06:42:40;;;;;;;1.67;1.02;;;27.90;33.90;;;;;;5067054;28;45174;-71
2022/07/14 06:45:08;;;;;;;2.70;1.25;;;27.90;33.90;;;;;;5066636;28;46392;-72
2022/07/14 06:47:36;;;;;;;1.40;1.00;;;27.90;33.90;;;;;;5066819;28;45322;-71
2022/07/14 06:50:04;;;;;;;1.35;1.23;;;27.90;33.90;;;;;;5066730;28;45254;-71
2022/07/14 06:52:31;;;;;;;1.13;1.00;;;27.90;33.90;;;;;;5066947;28;45247;-71
2022/07/14 06:54:58;;;;;;;1.42;1.00;;;27.90;33.90;;;;;;5066456;28;46717;-72
2022/07/14 06:57:25;;;;;;;1.23;1.13;;;27.90;33.80;;;;;;5066317;28;45318;-71
2022/07/14 06:59:52;;;;;;;0.98;0.88;;;27.90;33.90;;;;;;5066805;28;45418;-72
2022/07/14 07:02:19;;;;;;;1.67;1.00;;;28.00;33.90;;;;;;5066435;28;45181;-72
2022/07/14 07:06:43;;;;;;;1.70;0.90;;;28.00;33.90;;;;;;5066591;28;45495;-72
2022/07/14 07:07:33;;;;;;;1.00;1.00;;;28.00;33.90;;;;;;5066347;28;45321;-72
2022/07/14 07:10:00;;;;;;;1.65;0.90;;;28.00;33.90;;;;;;5066478;28;45235;-73
2022/07/14 07:12:28;;;;;;;1.80;0.90;;;28.00;34.60;;;;;;5066534;28;45419;-72
2022/07/14 07:14:55;;;;;;;1.05;0.98;;;28.00;34.00;;;;;;5066137;28;46432;-71
2022/07/14 07:17:22;;;;;;;2.15;0.93;;;28.10;34.20;;;;;;5069325;28;45255;-72
2022/07/14 07:19:50;;;;;;;0.90;0.90;;;28.10;34.20;;;;;;5069788;28;45298;-71
2022/07/14 07:22:17;;;;;;;1.17;1.08;;;28.10;34.30;;;;;;5069305;28;45326;-71
2022/07/14 07:24:43;;;;;;;0.82;0.80;;;28.10;34.20;;;;;;5069629;28;46393;-71
2022/07/14 07:27:10;;;;;;;2.30;1.00;;;28.10;34.10;;;;;;5069889;28;45388;-71
2022/07/14 07:29:37;;;;;;;1.02;0.90;;;28.10;34.10;;;;;;5069792;28;45217;-71
2022/07/14 07:32:04;;;;;;;1.00;1.00;;;28.20;34.20;;;;;;5070343;28;45267;-71
2022/07/14 07:34:31;;;;;;;1.55;1.10;;;28.20;34.10;;;;;;5069298;28;45346;-72
2022/07/14 07:36:59;;;;;;;3.13;0.98;;;28.20;34.20;;;;;;5069636;28;45193;-71
2022/07/14 07:39:26;;;;;;;1.13;1.00;;;28.20;34.10;;;;;;5069828;28;45138;-71
2022/07/14 07:41:55;;;;;;;1.63;1.00;;;28.20;34.00;;;;;;5069793;28;45249;-71
2022/07/14 07:44:22;;;;;;;1.10;1.00;;;28.30;34.10;;;;;;5069265;28;46388;-71
2022/07/14 07:46:48;;;;;;;1.23;0.90;;;28.30;34.00;;;;;;5069696;28;45267;-71
2022/07/14 07:49:15;;;;;;;1.00;0.93;;;28.30;34.00;;;;;;5069570;28;45201;-71
2022/07/14 07:51:42;;;;;;;1.23;0.98;;;28.30;34.10;;;;;;5069739;28;45121;-72
2022/07/14 07:54:10;;;;;;;1.30;1.00;;;28.40;34.10;;;;;;5069283;28;46469;-72
2022/07/14 07:56:37;;;;;;;1.25;1.13;;;28.40;34.00;;;;;;5069314;28;45247;-72
2022/07/14 07:59:04;;;;;;;2.25;1.10;;;28.40;34.20;;;;;;5069530;28;45238;-71
2022/07/14 08:01:31;;;;;;;2.05;0.85;;;28.40;34.20;;;;;;5069550;28;45444;-71
2022/07/14 08:03:57;;;;;;;1.52;1.13;;;28.50;34.10;;;;;;5069015;28;47337;-72
2022/07/14 08:06:24;;;;;;;1.00;1.00;;;28.50;34.10;;;;;;5069086;28;45374;-70
2022/07/14 08:08:51;;;;;;;0.90;0.90;;;28.50;34.10;;;;;;5068650;28;45422;-71
2022/07/14 08:11:19;;;;;;;1.75;1.10;;;28.60;34.40;;;;;;5069548;28;45193;-71
2022/07/14 08:13:46;;;;;;;2.42;1.10;;;28.60;34.50;;;;;;5069006;28;46332;-72
2022/07/14 08:16:13;;;;;;;1.77;1.17;;;28.70;35.20;;;;;;5069210;28;45322;-71
2022/07/14 08:18:40;;;;;;;1.77;1.00;;;28.70;34.70;;;;;;5069174;28;45244;-70
2022/07/14 08:21:07;;;;;;;2.40;0.90;;;28.70;34.80;;;;;;5068874;28;45314;-69
2022/07/14 08:23:33;;;;;;;2.42;1.00;;;28.70;34.90;;;;;;5068544;28;46413;-70
2022/07/14 08:26:00;;;;;;;0.77;0.77;;;28.80;34.90;;;;;;5068599;28;45188;-70
2022/07/14 08:28:29;;;;;;;1.25;1.05;;;28.80;34.80;;;;;;5068772;28;45239;-70
2022/07/14 08:30:55;;;;;;;1.13;1.02;;;28.80;34.90;;;;;;5068994;28;45382;-69
2022/07/14 08:33:22;;;;;;;5.88;1.10;;;28.80;34.80;;;;;;5068135;28;45314;-70
2022/07/14 08:35:49;;;;;;;3.75;1.10;;;28.80;35.40;;;;;;5068370;28;45221;-73
2022/07/14 08:38:16;;;;;;;1.05;0.93;;;28.90;34.70;;;;;;5068868;28;45235;-73
2022/07/14 08:40:42;;;;;;;2.70;1.00;;;28.90;34.80;;;;;;5068954;28;45328;-73
2022/07/14 08:43:09;;;;;;;1.38;1.08;;;28.90;35.20;;;;;;5068537;28;45240;-73
2022/07/14 08:45:42;;;;;;;0.98;0.90;;;28.90;34.60;;;;;;5068684;28;45320;-73
2022/07/14 08:48:09;;;;;;;1.23;0.93;;;29.00;34.50;;;;;;5068769;28;45248;-73
2022/07/14 08:50:37;;;;;;;1.10;1.00;;;29.00;34.60;;;;;;5068873;28;45355;-73
2022/07/14 08:53:04;;;;;;;1.15;0.98;;;29.00;34.50;;;;;;5067754;28;46612;-71
2022/07/14 08:55:31;;;;;;;1.75;1.20;;;29.00;34.30;;;;;;5067887;28;45220;-71
2022/07/14 08:57:58;;;;;;;2.85;0.90;;;29.10;34.40;;;;;;5068501;28;45303;-73
2022/07/14 09:00:25;;;;;;;1.42;0.95;;;29.10;34.40;;;;;;5068584;28;45229;-72
2022/07/14 09:02:54;;;;;;;0.93;0.80;;;29.10;34.40;;;;;;5068156;28;45456;-71
2022/07/14 09:05:21;;;;;;;1.10;1.00;;;29.10;34.40;;;;;;5068388;28;45296;-72
2022/07/14 09:07:53;;;;;;;1.25;0.95;;;29.10;34.30;;;;;;5068387;28;45408;-72
2022/07/14 09:10:24;;;;;;;2.95;0.98;;;29.20;34.40;;;;;;5068533;28;45194;-72
2022/07/14 09:12:50;;;;;;;0.80;0.80;;;29.20;34.30;;;;;;5068153;28;46384;-72
2022/07/14 09:18:04;;;;;;;0.93;0.90;;;29.30;34.30;;;;;;5065685;28;45391;-72
2022/07/14 09:20:31;;;;;;;0.85;0.77;;;29.30;34.30;;;;;;5068290;28;45328;-72
2022/07/14 09:22:59;;;;;;;2.13;1.50;;;29.30;34.20;;;;;;5067822;28;45438;-72
2022/07/14 09:25:27;;;;;;;4.25;1.00;;;29.40;34.30;;;;;;5067868;28;45347;-72
2022/07/14 09:27:54;;;;;;;0.90;0.90;;;29.40;34.20;;;;;;5068020;28;45169;-72
2022/07/14 09:30:21;;;;;;;2.60;1.10;;;29.40;34.20;;;;;;5068070;28;45391;-72
2022/07/14 09:32:51;;;;;;;1.92;1.00;;;29.50;34.30;;;;;;5067566;28;46311;-72
2022/07/14 09:35:20;;;;;;;1.42;0.80;;;29.50;34.30;;;;;;5067599;28;45327;-72
2022/07/14 09:37:47;;;;;;;1.90;1.00;;;29.50;34.30;;;;;;5067886;28;45200;-72
2022/07/14 09:40:21;;;;;;;1.65;1.00;;;29.60;34.20;;;;;;5067436;28;45419;-72
2022/07/14 09:42:50;;;;;;;2.05;0.90;;;29.60;34.30;;;;;;5067542;28;46544;-72
2022/07/14 09:45:17;;;;;;;0.80;0.80;;;29.60;34.20;;;;;;5067551;28;45305;-72
2022/07/14 09:47:54;;;;;;;0.80;0.80;;;29.60;34.20;;;;;;5068025;28;45194;-72
2022/07/14 09:50:43;;;;;;;1.55;0.75;;;29.60;34.20;;;;;;5068188;28;45269;-73
2022/07/14 09:53:12;;;;;;;0.70;0.70;;;29.70;34.20;;;;;;5067270;28;46550;-72
2022/07/14 09:55:40;;;;;;;0.93;0.93;;;29.70;34.20;;;;;;5067328;28;45181;-73
2022/07/14 09:58:07;;;;;;;1.00;1.00;;;29.70;34.10;;;;;;5067452;28;45180;-73
2022/07/14 10:00:34;;;;;;;1.15;0.82;;;29.80;34.10;;;;;;5067675;28;45248;-72
2022/07/14 10:03:02;;;;;;;1.05;1.00;;;29.80;34.10;;;;;;5066623;28;45489;-72
2022/07/14 10:05:29;;;;;;;1.00;0.90;;;29.90;34.10;;;;;;5067029;28;45220;-72
2022/07/14 10:07:57;;;;;;;0.85;0.75;;;29.90;34.00;;;;;;5067379;28;45358;-73
2022/07/14 10:10:24;;;;;;;0.90;0.90;;;29.90;34.00;;;;;;5067851;28;45419;-73
2022/07/14 10:12:51;;;;;;;1.95;0.90;;;30.00;34.00;;;;;;5067089;28;45371;-73
2022/07/14 10:15:17;;;;;;;0.85;0.80;;;30.00;34.00;;;;;;5067148;28;45295;-73
2022/07/14 10:17:44;;;;;;;0.80;0.80;;;30.00;33.90;;;;;;5067201;28;45304;-72
2022/07/14 10:20:12;;;;;;;1.73;0.90;;;30.00;33.90;;;;;;5067671;28;45248;-73
2022/07/14 10:22:40;;;;;;;1.83;0.88;;;30.10;33.90;;;;;;5067047;28;47683;-73
2022/07/14 10:25:09;;;;;;;0.90;0.80;;;30.10;33.90;;;;;;5067120;28;45374;-72
2022/07/14 10:27:36;;;;;;;1.85;0.90;;;30.20;33.90;;;;;;5066991;28;45126;-73
2022/07/14 10:30:03;;;;;;;1.10;0.82;;;30.20;33.90;;;;;;5067322;28;45190;-72
2022/07/14 10:32:36;;;;;;;0.82;0.82;;;30.20;33.80;;;;;;5066956;28;47681;-74
2022/07/14 10:35:12;;;;;;;1.17;1.08;;;30.20;33.80;;;;;;5066578;28;45183;-73
2022/07/14 10:37:43;;;;;;;0.68;0.68;;;30.30;33.90;;;;;;5067142;28;45210;-73
2022/07/14 10:40:16;;;;;;;0.80;0.80;;;30.30;33.90;;;;;;5067291;28;45202;-73
2022/07/14 10:42:48;;;;;;;0.77;0.77;;;30.40;33.90;;;;;;5066503;28;45287;-72
2022/07/14 10:45:15;;;;;;;1.23;1.13;;;30.40;33.80;;;;;;5066661;28;45274;-73
2022/07/14 10:47:48;;;;;;;0.70;0.70;;;30.40;33.70;;;;;;5066958;28;45305;-72
2022/07/14 10:50:15;;;;;;;0.77;0.77;;;30.50;33.80;;;;;;5066052;28;45498;-74
2022/07/14 10:52:50;;;;;;;0.80;0.80;;;30.50;33.70;;;;;;5066610;28;45452;-74
2022/07/14 10:55:19;;;;;;;0.90;0.90;;;30.50;33.70;;;;;;5066742;28;45300;-70
2022/07/14 10:58:32;;;;;;;1.98;1.08;;;30.60;33.70;;;;;;5066719;28;45197;-70
2022/07/14 11:00:59;;;;;;;0.70;0.70;;;30.70;33.80;;;;;;5066758;28;45346;-74
2022/07/14 11:03:27;;;;;;;1.88;0.80;;;30.80;33.80;;;;;;5066023;28;47602;-74
2022/07/14 11:06:14;;;;;;;2.58;1.10;;;30.80;33.80;;;;;;5067004;28;45374;-74
2022/07/14 11:08:41;;;;;;;1.05;1.05;;;30.90;33.80;;;;;;5066770;28;45254;-74
2022/07/14 11:11:17;;;;;;;0.90;0.90;;;30.90;33.70;;;;;;5066643;28;45466;-74
2022/07/14 11:14:05;;;;;;;0.98;0.88;;;31.00;33.70;;;;;;5066485;28;46636;-74
2022/07/14 11:16:57;;;;;;;1.48;0.80;;;31.10;33.60;;;;;;5067961;28;45295;-74
2022/07/14 11:19:25;;;;;;;1.35;0.90;;;31.10;33.50;;;;;;5067695;28;45290;-73
2022/07/14 11:22:16;;;;;;;0.80;0.80;;;31.20;33.50;;;;;;5066906;28;45223;-71
2022/07/14 11:24:51;;;;;;;1.70;0.88;;;31.20;33.40;;;;;;5068961;27;45335;-73
2022/07/14 11:27:39;;;;;;;0.70;0.70;;;31.30;33.40;;;;;;5069033;28;45337;-72
2022/07/14 11:30:24;;;;;;;3.75;1.00;;;31.40;33.20;;;;;;5066742;28;45269;-72
2022/07/14 11:33:01;;;;;;;1.58;1.00;;;31.40;33.10;;;;;;5067617;28;45576;-73
2022/07/14 11:38:36;;;;;;;3.80;0.88;;;31.60;33.20;;;;;;5065649;28;45265;-73
2022/07/14 11:41:05;;;;;;;2.13;1.00;;;31.60;33.20;;;;;;5068129;28;46702;-74
2022/07/14 11:43:46;;;;;;;1.35;0.85;;;31.60;34.20;;;;;;5067627;28;45224;-74
2022/07/14 11:46:14;;;;;;;2.08;0.70;;;31.70;33.50;;;;;;5067359;28;45499;-74
2022/07/14 11:48:42;;;;;;;1.25;1.10;;;31.80;33.80;;;;;;5066597;28;45259;-75
2022/07/14 11:51:10;;;;;;;0.93;0.82;;;31.90;32.80;;;;;;5066663;28;45251;-74
2022/07/14 11:53:37;;;;;;;1.83;0.82;;;32.00;32.30;;;;;;5067318;28;45466;-74
2022/07/14 11:56:06;;;;;;;0.98;0.80;;;32.20;32.20;;;;;;5068483;28;45411;-74
2022/07/14 11:58:33;;;;;;;1.30;0.85;;;32.30;32.80;;;;;;5067940;28;45251;-75
2022/07/14 12:01:01;;;;;;;1.25;0.90;;;32.40;32.90;;;;;;5066899;28;44750;-74
2022/07/14 12:03:28;;;;;;;3.25;1.00;;;32.50;32.90;;;;;;5070736;28;45279;-75
2022/07/14 12:05:56;;;;;;;2.85;0.90;;;32.60;33.00;;;;;;5069697;28;45472;-74
2022/07/14 12:08:23;;;;;;;0.80;0.80;;;32.70;32.80;;;;;;5069046;28;45185;-77
2022/07/14 12:10:50;;;;;;;1.08;0.95;;;32.80;32.70;;;;;;5069915;28;45230;-76
2022/07/14 12:13:17;;;;;;;1.40;1.13;;;32.80;32.50;;;;;;5069568;28;45490;-75
2022/07/14 12:15:44;;;;;;;1.00;0.90;;;32.90;32.50;;;;;;5069523;28;46738;-75
2022/07/14 12:18:12;;;;;;;1.17;0.98;;;32.90;32.40;;;;;;5069174;28;45209;-76
2022/07/14 12:20:40;;;;;;;1.02;0.95;;;32.90;32.40;;;;;;5069097;28;45196;-74
2022/07/14 12:23:07;;;;;;;1.08;0.80;;;33.00;32.40;;;;;;5069217;28;45457;-73
2022/07/14 12:25:34;;;;;;;1.10;1.00;;;33.00;32.30;;;;;;5068848;28;46555;-75
2022/07/14 12:28:01;;;;;;;1.10;0.80;;;33.10;32.30;;;;;;5069007;28;45145;-75
2022/07/14 12:30:42;;;;;;;1.98;1.10;;;33.10;32.40;;;;;;5068848;28;45141;-75
2022/07/14 12:33:09;;;;;;;1.15;1.05;;;33.00;32.40;;;;;;5068935;28;45566;-75
2022/07/14 12:35:38;;;;;;;2.45;1.38;;;33.00;32.30;;;;;;5069331;28;46648;-76
2022/07/14 12:38:04;;;;;;;1.27;0.88;;;33.10;32.40;;;;;;5068704;28;45203;-73
2022/07/14 12:40:32;;;;;;;1.08;0.98;;;33.10;32.30;;;;;;5070244;28;45310;-73
2022/07/14 12:42:59;;;;;;;0.93;0.90;;;33.20;32.30;;;;;;5068675;28;45355;-75
2022/07/14 12:45:26;;;;;;;3.03;0.85;;;33.20;32.20;;;;;;5069270;28;45379;-72
2022/07/14 12:47:55;;;;;;;0.98;0.90;;;33.20;32.20;;;;;;5069373;28;45214;-72
2022/07/14 12:50:23;;;;;;;0.70;0.70;;;33.30;32.30;;;;;;5069196;28;45299;-72
2022/07/14 12:52:53;;;;;;;1.50;0.80;;;33.30;32.20;;;;;;5068509;28;45410;-70
2022/07/14 12:55:33;;;;;;;1.75;0.93;;;33.40;32.20;;;;;;5068315;28;47308;-72
2022/07/14 12:58:05;;;;;;;1.65;1.00;;;33.50;32.20;;;;;;5068057;28;45260;-72
2022/07/14 13:00:32;;;;;;;0.73;0.73;;;33.50;32.10;;;;;;5068798;28;45358;-72
2022/07/14 13:03:11;;;;;;;1.17;1.08;;;33.50;32.00;;;;;;5067424;28;47289;-73
2022/07/14 13:05:38;;;;;;;1.00;0.63;;;33.60;32.00;;;;;;5068393;28;45469;-76